Pegu, Burma
Current Conditions -  °F | °C
As of 4:30 AM on Monday 24 Nov 2014 (Local Time) from VYYY Reporting Station
Haze Haze  
Wind Chill: 70°   Ceiling: Unl
Heat Index: 70°   Visibility: 3mi
Dew Point: 68°   Wind: 2mph
Humidity: 94%   Direction: 350°N
Pressure: 29.88"   Gusts: NA
Location:  17.33°N, 96.5°E
Report Text: VYYY 232230Z 35002KT 5000 BR FEW018 SCT250 21/20 Q1012 NOSIG
Loading
Personal Weather Stations






























Interactive Weather Map New forecast layout! Learn more

10-Day Weather Forecast

Advertisements
Track Severe Weather on mobile